Time;durP1;ratioP1;P1;durP2;ratioP2;P2;SDS_P1;SDS_P2;PMS_P1;PMS_P2;Temp;Humidity;BMP_temperature;BMP_pressure;BME280_temperature;BME280_humidity;BME280_pressure;Samples;Min_cycle;Max_cycle;Signal;HPM_P1;HPM_P2
2022/08/04 00:01:42;;;;;;;2.77;2.12;;;;;;;20.11;100.00;99558.48;1671487;84;21399;-54
2022/08/04 00:04:17;;;;;;;4.50;2.62;;;;;;;20.07;100.00;99552.45;1670996;83;21088;-54
2022/08/04 00:07:04;;;;;;;1.82;1.72;;;;;;;20.05;100.00;99555.81;1673425;83;21761;-54
2022/08/04 00:10:01;;;;;;;2.50;2.05;;;;;;;20.01;100.00;99551.61;1671234;83;21165;-55
2022/08/04 00:12:32;;;;;;;2.55;2.35;;;;;;;19.95;100.00;99547.58;1671101;83;21097;-55
2022/08/04 00:15:00;;;;;;;2.75;1.80;;;;;;;19.90;100.00;99547.64;1685469;83;21006;-54
2022/08/04 00:17:47;;;;;;;1.70;1.60;;;;;;;19.88;100.00;99556.47;1660093;84;21088;-53
2022/08/04 00:20:17;;;;;;;2.98;1.80;;;;;;;19.85;100.00;99559.45;1659871;84;21850;-54
2022/08/04 00:22:45;;;;;;;2.37;1.42;;;;;;;19.82;100.00;99557.86;1661324;84;21077;-55
2022/08/04 00:25:11;;;;;;;2.75;2.55;;;;;;;19.81;100.00;99553.92;1688637;83;21067;-55
2022/08/04 00:27:38;;;;;;;2.00;1.77;;;;;;;19.81;100.00;99550.70;1661315;85;21073;-55
2022/08/04 00:30:06;;;;;;;1.77;1.67;;;;;;;19.83;100.00;99551.89;1684919;83;21101;-55
2022/08/04 00:32:33;;;;;;;2.27;2.00;;;;;;;19.85;100.00;99553.50;1684487;83;21980;-55
2022/08/04 00:34:59;;;;;;;2.98;1.20;;;;;;;19.87;100.00;99558.33;1675596;84;21081;-55
2022/08/04 00:37:26;;;;;;;1.52;1.40;;;;;;;19.87;100.00;99559.70;1617144;86;21148;-56
2022/08/04 00:39:53;;;;;;;2.62;2.05;;;;;;;19.88;100.00;99561.92;1653741;85;21071;-55
2022/08/04 00:42:34;;;;;;;3.77;1.77;;;;;;;19.89;100.00;99564.53;1654222;85;21147;-55
2022/08/04 00:45:29;;;;;;;2.20;1.40;;;;;;;19.91;100.00;99572.56;1658419;85;21092;-54
2022/08/04 00:48:35;;;;;;;1.55;1.30;;;;;;;19.92;100.00;99570.20;1692896;83;21061;-54
2022/08/04 00:51:16;;;;;;;2.95;1.40;;;;;;;19.87;100.00;99573.35;1690504;83;21058;-55
2022/08/04 00:54:00;;;;;;;1.45;1.37;;;;;;;19.84;100.00;99571.38;1689888;82;21065;-54
2022/08/04 00:56:51;;;;;;;9.55;1.85;;;;;;;19.84;100.00;99572.75;1643497;82;22178;-55
2022/08/04 01:00:00;;;;;;;3.62;1.47;;;;;;;19.85;100.00;99570.38;1693485;82;21529;-55
2022/08/04 01:02:57;;;;;;;1.67;1.57;;;;;;;19.85;100.00;99573.11;1695843;83;20955;-54
2022/08/04 08:12:10;;;;;;;3.75;1.72;;;;;;;19.85;100.00;99565.79;1537210;83;975188;-53
2022/08/04 08:14:37;;;;;;;10.68;7.40;;;;;;;19.85;100.00;99565.79;1704424;82;21025;-53
2022/08/04 08:17:03;;;;;;;7.10;6.37;;;;;;;22.65;100.00;99626.73;1700961;82;21041;-53
2022/08/04 08:19:31;;;;;;;6.95;6.25;;;;;;;22.71;100.00;99629.39;1707135;82;21057;-54
2022/08/04 08:21:58;;;;;;;7.95;7.28;;;;;;;22.75;100.00;99634.94;1703432;82;22367;-55
2022/08/04 08:24:24;;;;;;;8.25;7.55;;;;;;;22.82;100.00;99641.53;1711613;82;21107;-54
2022/08/04 08:26:51;;;;;;;14.35;8.65;;;;;;;22.88;100.00;99647.26;1704886;82;21559;-57
2022/08/04 08:29:17;;;;;;;7.90;7.30;;;;;;;22.93;100.00;99646.81;1668470;82;985057;-56
2022/08/04 08:31:44;;;;;;;6.58;6.17;;;;;;;23.03;100.00;99644.87;1681126;82;974831;-55
2022/08/04 08:34:11;;;;;;;7.03;5.47;;;;;;;23.05;100.00;99645.59;1590551;83;984429;-55
2022/08/04 08:37:04;;;;;;;6.70;6.20;;;;;;;23.19;100.00;99652.41;1583011;83;984752;-54
2022/08/04 08:39:45;;;;;;;7.12;6.42;;;;;;;23.19;100.00;99652.41;1645306;82;975384;-54
2022/08/04 08:43:09;;;;;;;7.22;6.58;;;;;;;23.29;100.00;99636.72;1528877;83;975606;-55
2022/08/04 09:37:40;;;;;;;7.28;6.67;;;;;;;23.35;100.00;99635.56;1472927;82;984932;-51
2022/08/04 09:40:24;;;;;;;4.60;4.35;;;;;;;23.35;100.00;99635.56;1700064;82;21081;-54
2022/08/04 09:42:59;;;;;;;5.10;4.83;;;;;;;23.67;100.00;99646.50;1703616;82;21919;-53
2022/08/04 09:45:51;;;;;;;4.30;4.10;;;;;;;23.72;100.00;99648.28;1703742;82;20875;-54
2022/08/04 09:48:26;;;;;;;8.35;4.60;;;;;;;23.81;100.00;99639.07;1698058;82;266076;-53
2022/08/04 09:51:17;;;;;;;3.90;3.60;;;;;;;23.90;100.00;99637.23;1609076;82;975493;-53
2022/08/04 09:53:59;;;;;;;3.20;3.10;;;;;;;23.90;100.00;99637.23;1676988;84;21216;-53
2022/08/04 09:56:41;;;;;;;3.83;3.62;;;;;;;24.04;100.00;99643.51;1654876;83;975441;-53
2022/08/04 09:59:26;;;;;;;4.60;3.17;;;;;;;24.10;100.00;99643.72;1644031;83;984390;-54
2022/08/04 10:02:10;;;;;;;4.30;4.03;;;;;;;24.20;100.00;99642.73;1627569;83;984315;-53
2022/08/04 10:07:33;;;;;;;4.92;4.25;;;;;;;24.20;100.00;99642.73;1612826;84;975235;-53
2022/08/04 11:19:48;;;;;;;3.77;3.58;;;;;;;24.20;100.00;99642.73;1442819;83;975397;-53
2022/08/04 11:22:25;;;;;;;3.00;2.80;;;;;;;24.20;100.00;99642.73;1697380;82;875725;-54
2022/08/04 11:25:49;;;;;;;3.33;2.87;;;;;;;25.24;100.00;99605.64;1529803;82;975444;-53
2022/08/04 11:30:20;;;;;;;3.50;3.30;;;;;;;25.24;100.00;99605.64;1581906;82;985074;-52
2022/08/04 11:33:29;;;;;;;4.30;2.83;;;;;;;25.24;100.00;99605.64;1662723;82;975552;-55
2022/08/04 11:36:35;;;;;;;3.95;3.65;;;;;;;25.17;100.00;99602.72;1537294;83;985060;-55
